| time (UTC) | temp F | wind direction | speed MPH | gust MPH | rain 1hr in | rain 24hr in | rain mn in | humidity % | barometer mb |
| 20260510111513 | 52 | 49 | 3.0 | 8.0 | 0.00 | 0.00 | 0.00 | 79 | 1022.1 |
| 20260510110024 | 54 | 348 | 3.0 | 9.0 | 0.00 | 0.00 | 0.00 | 72 | 1021.8 |
| 20260510104504 | 55 | 21 | 5.0 | 12.0 | 0.00 | 0.00 | 0.00 | 60 | 1020.9 |
| 20260510103008 | 55 | 70 | 2.0 | 10.0 | 0.00 | 0.00 | 0.00 | 60 | 1019.9 |
| 20260510101512 | 55 | 123 | 5.0 | 12.0 | 0.00 | 0.00 | 0.00 | 60 | 1019.2 |
| 20260510100018 | 55 | 83 | 5.0 | 13.0 | 0.00 | 0.00 | 0.00 | 60 | 1019.2 |
| 20260510094529 | 55 | 28 | 3.0 | 8.0 | 0.00 | 0.00 | 0.00 | 60 | 1019.4 |
| 20260510093004 | 55 | 75 | 2.0 | 8.0 | 0.00 | 0.00 | 0.00 | 59 | 1019.4 |
| 20260510091512 | 56 | 44 | 3.0 | 10.0 | 0.00 | 0.00 | 0.00 | 59 | 1019.3 |
| 20260510090016 | 56 | 325 | 5.0 | 11.0 | 0.00 | 0.00 | 0.00 | 59 | 1019.2 |
| 20260510084521 | 56 | 32 | 5.0 | 12.0 | 0.00 | 0.00 | 0.00 | 59 | 1019.3 |
| 20260510083024 | 56 | 146 | 4.0 | 9.0 | 0.00 | 0.00 | 0.00 | 60 | 1019.5 |
| 20260510081508 | 56 | 158 | 3.0 | 9.0 | 0.00 | 0.00 | 0.00 | 61 | 1019.4 |
| 20260510080010 | 56 | 54 | 4.0 | 15.0 | 0.00 | 0.00 | 0.00 | 61 | 1019.4 |
| 20260510074518 | 56 | 44 | 4.0 | 13.0 | 0.00 | 0.00 | 0.00 | 1019.3 | |
| 20260510073024 | 57 | 16 | 4.0 | 14.0 | 0.00 | 0.00 | 0.00 | 61 | 1019.1 |
| 20260510071523 | 57 | 14 | 4.0 | 14.0 | 0.00 | 0.00 | 0.00 | 61 | 1019.0 |
| 20260510070008 | 57 | 31 | 5.0 | 14.0 | 0.00 | 0.00 | 0.00 | 60 | 1019.2 |
| 20260510064516 | 58 | 18 | 6.0 | 13.0 | 0.00 | 0.00 | 0.00 | 61 | 1019.1 |
| 20260510063022 | 58 | 341 | 6.0 | 14.0 | 0.00 | 0.00 | 0.00 | 62 | 1019.0 |
| 20260510061531 | 58 | 23 | 6.0 | 13.0 | 0.00 | 0.00 | 0.00 | 61 | 1018.3 |
| 20260510060042 | 58 | 46 | 8.0 | 12.0 | 0.00 | 0.00 | 0.00 | 61 | 1018.3 |
| 20260510054516 | 59 | 57 | 7.0 | 14.0 | 0.00 | 0.00 | 0.00 | 64 | 1018.2 |
| 20260510053003 | 59 | 98 | 3.0 | 15.0 | 0.00 | 0.00 | 0.00 | 65 | 1016.5 |
| 20260510051503 | 59 | 111 | 4.0 | 12.0 | 0.00 | 0.00 | 0.00 | 65 | 1015.9 |
| 20260510050009 | 59 | 100 | 4.0 | 12.0 | 0.00 | 0.00 | 0.00 | 65 | 1015.7 |
| 20260510044514 | 60 | 107 | 4.0 | 12.0 | 0.00 | 0.00 | 0.00 | 64 | 1015.3 |
| 20260510043018 | 60 | 61 | 4.0 | 15.0 | 0.00 | 0.00 | 0.00 | 63 | 1015.1 |
| 20260510041513 | 61 | 112 | 5.0 | 13.0 | 0.00 | 0.00 | 0.00 | 61 | 1014.6 |
| 20260510040008 | 61 | 107 | 3.0 | 11.0 | 0.00 | 0.00 | 0.00 | 59 | 1014.0 |
| 20260510034509 | 62 | 71 | 3.0 | 8.0 | 0.00 | 0.00 | 0.00 | 58 | 1014.2 |
| 20260510033012 | 63 | 67 | 3.0 | 9.0 | 0.00 | 0.00 | 0.00 | 56 | 1013.8 |
| 20260510031518 | 64 | 111 | 4.0 | 11.0 | 0.00 | 0.00 | 0.00 | 54 | 1013.1 |
| 20260510030021 | 65 | 33 | 4.0 | 11.0 | 0.00 | 0.00 | 0.00 | 52 | 1012.9 |
| 20260510024510 | 65 | 59 | 5.0 | 10.0 | 0.00 | 0.00 | 0.00 | 51 | 1012.5 |
| 20260510023030 | 66 | 59 | 5.0 | 14.0 | 0.00 | 0.00 | 0.00 | 49 | 1012.0 |
| 20260510021520 | 67 | 42 | 6.0 | 14.0 | 0.00 | 0.00 | 0.00 | 48 | 1011.6 |
| 20260510020022 | 69 | 67 | 6.0 | 17.0 | 0.00 | 0.00 | 0.00 | 46 | 1011.4 |
| 20260510014508 | 71 | 311 | 7.0 | 16.0 | 0.00 | 0.00 | 0.00 | 43 | 1010.9 |
| 20260510013014 | 75 | 26 | 9.0 | 14.0 | 0.00 | 0.00 | 0.00 | 40 | 1010.4 |
| 20260510011521 | 78 | 10 | 6.0 | 12.0 | 0.00 | 0.00 | 0.00 | 29 | 1009.8 |
| 20260510010026 | 80 | 349 | 5.0 | 10.0 | 0.00 | 0.00 | 0.00 | 25 | 1009.2 |
| 20260510004522 | 82 | 309 | 7.0 | 13.0 | 0.00 | 0.00 | 0.00 | 24 | 1008.9 |
| 20260510003008 | 83 | 341 | 8.0 | 14.0 | 0.00 | 0.00 | 0.00 | 24 | 1008.8 |
| 20260510001517 | 83 | 340 | 7.0 | 15.0 | 0.00 | 0.00 | 0.00 | 23 | 1008.8 |
| 20260510000020 | 85 | 329 | 8.0 | 14.0 | 0.00 | 0.00 | 0.00 | 22 | 1008.8 |
| 20260509234523 | 85 | 351 | 10.0 | 18.0 | 0.00 | 0.00 | 0.00 | 22 | 1008.7 |
| 20260509233028 | 86 | 44 | 9.0 | 17.0 | 0.00 | 0.00 | 0.00 | 21 | 1008.7 |
| 20260509231513 | 87 | 9 | 8.0 | 16.0 | 0.00 | 0.00 | 0.00 | 21 | 1008.3 |
| 20260509230016 | 87 | 11 | 5.0 | 12.0 | 0.00 | 0.00 | 0.00 | 21 | 1008.1 |
| 20260509224522 | 88 | 335 | 7.0 | 11.0 | 0.00 | 0.00 | 0.00 | 21 | 1008.1 |
| 20260509223028 | 88 | 9 | 8.0 | 11.0 | 0.00 | 0.00 | 0.00 | 21 | 1008.2 |
| 20260509221531 | 88 | 22 | 8.0 | 16.0 | 0.00 | 0.00 | 0.00 | 20 | 1008.2 |
| 20260509220016 | 88 | 352 | 5.0 | 12.0 | 0.00 | 0.00 | 0.00 | 20 | 1008.2 |
| 20260509214520 | 88 | 346 | 6.0 | 11.0 | 0.00 | 0.00 | 0.00 | 22 | 1008.1 |
| 20260509213026 | 89 | 286 | 4.0 | 9.0 | 0.00 | 0.00 | 0.00 | 21 | 1008.2 |
| 20260509211549 | 89 | 321 | 5.0 | 12.0 | 0.00 | 0.00 | 0.00 | 21 | 1008.2 |
| 20260509210026 | 89 | 294 | 7.0 | 11.0 | 0.00 | 0.00 | 0.00 | 21 | 1008.3 |
| 20260509204503 | 90 | 306 | 4.0 | 13.0 | 0.00 | 0.00 | 0.00 | 23 | 1008.3 |
| 20260509203006 | 89 | 331 | 2.0 | 16.0 | 0.00 | 0.00 | 0.00 | 24 | 1008.5 |
| 20260509201505 | 88 | 305 | 1.0 | 5.0 | 0.00 | 0.00 | 0.00 | 24 | 1008.6 |
| 20260509200012 | 87 | 291 | 1.0 | 9.0 | 0.00 | 0.00 | 0.00 | 27 | 1008.7 |
| 20260509194505 | 88 | 343 | 4.0 | 14.0 | 0.00 | 0.00 | 0.00 | 26 | 1009.0 |
| 20260509193006 | 87 | 269 | 5.0 | 11.0 | 0.00 | 0.00 | 0.00 | 26 | 1009.1 |
| 20260509191507 | 86 | 218 | 5.0 | 14.0 | 0.00 | 0.00 | 0.00 | 26 | 1009.4 |
| 20260509190012 | 85 | 257 | 5.0 | 14.0 | 0.00 | 0.00 | 0.00 | 27 | 1009.5 |
| 20260509184516 | 84 | 171 | 5.0 | 15.0 | 0.00 | 0.00 | 0.00 | 27 | 1010.0 |
| 20260509183011 | 83 | 290 | 7.0 | 15.0 | 0.00 | 0.00 | 0.00 | 27 | 1010.1 |
| 20260509181505 | 83 | 196 | 6.0 | 18.0 | 0.00 | 0.00 | 0.00 | 29 | 1010.4 |
| 20260509180008 | 82 | 283 | 8.0 | 17.0 | 0.00 | 0.00 | 0.00 | 29 | 1010.9 |
| 20260509174516 | 82 | 259 | 7.0 | 18.0 | 0.00 | 0.00 | 0.00 | 30 | 1011.4 |
| 20260509173021 | 81 | 268 | 7.0 | 16.0 | 0.00 | 0.00 | 0.00 | 31 | 1011.5 |
| 20260509171505 | 80 | 220 | 6.0 | 11.0 | 0.00 | 0.00 | 0.00 | 31 | 1011.7 |
| 20260509170010 | 79 | 240 | 5.0 | 14.0 | 0.00 | 0.00 | 0.00 | 30 | 1012.1 |
| 20260509164512 | 79 | 229 | 7.0 | 20.0 | 0.00 | 0.00 | 0.00 | 32 | 1011.9 |
| 20260509163023 | 77 | 215 | 6.0 | 12.0 | 0.00 | 0.00 | 0.00 | 34 | 1012.2 |
| 20260509161503 | 76 | 246 | 6.0 | 12.0 | 0.00 | 0.00 | 0.00 | 37 | 1012.4 |
| 20260509160008 | 75 | 215 | 6.0 | 11.0 | 0.00 | 0.00 | 0.00 | 38 | 1012.7 |
| 20260509154512 | 74 | 220 | 7.0 | 14.0 | 0.00 | 0.00 | 0.00 | 40 | 1012.9 |
| 20260509153020 | 72 | 232 | 6.0 | 12.0 | 0.00 | 0.00 | 0.00 | 42 | 1013.0 |
| 20260509151522 | 70 | 286 | 7.0 | 11.0 | 0.00 | 0.00 | 0.00 | 43 | 1013.3 |
| 20260509150005 | 69 | 249 | 4.0 | 10.0 | 0.00 | 0.00 | 0.00 | 46 | 1013.4 |
| 20260509144512 | 67 | 306 | 5.0 | 11.0 | 0.00 | 0.00 | 0.00 | 48 | 1013.5 |
| 20260509143017 | 65 | 261 | 5.0 | 11.0 | 0.00 | 0.00 | 0.00 | 49 | 1013.8 |
| 20260509141526 | 64 | 242 | 3.0 | 8.0 | 0.00 | 0.00 | 0.00 | 52 | 1013.8 |
| 20260509140022 | 62 | 206 | 4.0 | 12.0 | 0.00 | 0.00 | 0.00 | 54 | 1014.0 |
| 20260509134509 | 60 | 249 | 4.0 | 9.0 | 0.00 | 0.00 | 0.00 | 59 | 1014.0 |
| 20260509133014 | 58 | 282 | 3.0 | 9.0 | 0.00 | 0.00 | 0.00 | 61 | 1014.0 |
| 20260509131531 | 55 | 266 | 2.0 | 8.0 | 0.00 | 0.00 | 0.00 | 65 | 1013.8 |
| 20260509130023 | 53 | 264 | 3.0 | 7.0 | 0.00 | 0.00 | 0.00 | 71 | 1013.8 |
| 20260509124528 | 49 | 257 | 0.0 | 2.0 | 0.00 | 0.00 | 0.00 | 80 | 1013.7 |
| 20260509123012 | 49 | 281 | 0.0 | 2.0 | 0.00 | 0.00 | 0.00 | 80 | 1013.6 |
| 20260509121516 | 48 | 293 | 0.0 | 0.0 | 0.00 | 0.00 | 0.00 | 81 | 1013.5 |
| 20260509120020 | 48 | 293 | 0.0 | 1.0 | 0.00 | 0.00 | 0.00 | 79 | 1013.4 |
| 20260509114502 | 49 | 267 | 0.0 | 2.0 | 0.00 | 0.00 | 0.00 | 77 | 1013.3 |
| 20260509113002 | 50 | 328 | 0.0 | 3.0 | 0.00 | 0.00 | 0.00 | 73 | 1013.1 |